Time;durP1;ratioP1;P1;durP2;ratioP2;P2;SDS_P1;SDS_P2;PMS_P1;PMS_P2;Temp;Humidity;BMP_temperature;BMP_pressure;BME280_temperature;BME280_humidity;BME280_pressure;Samples;Min_cycle;Max_cycle;Signal;HPM_P1;HPM_P2
2021/12/23 00:01:00;;;;;;;55.43;22.35;;;;;;;-1.93;100.00;99981.39;4505622;77;44123;-75
2021/12/23 00:07:01;;;;;;;61.70;24.45;;;;;;;-1.68;100.00;99978.87;4500912;77;44093;-77
2021/12/23 00:13:02;;;;;;;61.10;24.90;;;;;;;-1.72;100.00;99967.77;4505694;77;43841;-78
2021/12/23 00:19:15;;;;;;;70.47;27.77;;;;;;;-1.72;100.00;99966.45;4498528;77;44111;-80
2021/12/23 00:25:08;;;;;;;70.85;28.42;;;;;;;-1.65;100.00;99961.97;4458235;78;44145;-79
2021/12/23 00:31:09;;;;;;;67.27;29.70;;;;;;;-1.80;100.00;99953.54;4463912;78;44109;-79
2021/12/23 00:37:12;;;;;;;70.37;28.38;;;;;;;-1.70;100.00;99950.02;4465228;78;44124;-81
2021/12/23 00:43:13;;;;;;;61.70;27.27;;;;;;;-1.82;100.00;99951.88;4464387;79;43398;-79
2021/12/23 00:49:15;;;;;;;69.80;27.62;;;;;;;-1.76;100.00;99943.11;4457077;79;44125;-81
2021/12/23 00:55:16;;;;;;;67.97;27.52;;;;;;;-1.71;100.00;99931.20;4451828;79;43807;-78
2021/12/23 01:01:17;;;;;;;68.12;27.32;;;;;;;-1.48;100.00;99922.29;4442734;79;43766;-77
2021/12/23 01:07:19;;;;;;;70.75;29.45;;;;;;;-1.88;100.00;99919.42;4457599;79;44142;-77
2021/12/23 01:13:25;;;;;;;68.45;28.02;;;;;;;-1.78;100.00;99916.86;4459484;79;44081;-78
2021/12/23 01:19:26;;;;;;;75.12;30.35;;;;;;;-1.78;100.00;99916.02;4442829;79;44112;-78
2021/12/23 01:25:29;;;;;;;64.50;28.55;;;;;;;-1.78;100.00;99918.18;4473151;79;43431;-77
2021/12/23 01:31:33;;;;;;;69.10;27.27;;;;;;;-1.82;100.00;99909.69;4455334;79;44094;-79
2021/12/23 01:37:34;;;;;;;66.35;25.82;;;;;;;-1.98;100.00;99900.91;4449927;79;42859;-78
2021/12/23 01:43:35;;;;;;;64.30;26.30;;;;;;;-2.09;100.00;99898.34;4461536;79;43057;-77
2021/12/23 01:49:37;;;;;;;71.25;26.85;;;;;;;-2.15;100.00;99890.94;4458691;79;44095;-77
2021/12/23 01:55:41;;;;;;;64.60;27.10;;;;;;;-2.02;100.00;99887.66;4462580;79;43404;-77
2021/12/23 02:01:44;;;;;;;67.77;27.80;;;;;;;-2.19;100.00;99890.34;4435176;79;43372;-77
2021/12/23 02:07:46;;;;;;;65.78;26.68;;;;;;;-2.18;100.00;99882.83;4461479;78;43330;-75
2021/12/23 02:13:48;;;;;;;76.17;31.30;;;;;;;-2.40;100.00;99864.82;4453989;79;44113;-78
2021/12/23 02:19:56;;;;;;;77.82;30.77;;;;;;;-2.61;100.00;99860.00;4459473;77;43761;-78
2021/12/23 02:25:58;;;;;;;70.15;29.48;;;;;;;-2.70;100.00;99851.07;4515771;77;44199;-76
2021/12/23 02:31:59;;;;;;;77.08;29.67;;;;;;;-2.77;100.00;99843.30;4518200;77;43885;-78
2021/12/23 02:38:01;;;;;;;82.08;33.13;;;;;;;-3.09;100.00;99834.44;4517365;77;43079;-78
2021/12/23 02:44:02;;;;;;;78.90;32.25;;;;;;;-3.09;100.00;99840.52;4498501;77;43750;-77
2021/12/23 02:50:05;;;;;;;74.15;31.95;;;;;;;-3.08;100.00;99823.77;4507438;77;44076;-77
2021/12/23 02:56:10;;;;;;;75.12;32.00;;;;;;;-3.61;100.00;99816.57;4522248;77;44081;-76
2021/12/23 03:02:12;;;;;;;79.77;31.33;;;;;;;-3.25;100.00;99809.84;4510129;77;28470;-80
2021/12/23 03:08:13;;;;;;;77.60;32.00;;;;;;;-3.28;100.00;99813.55;4507490;77;43833;-78
2021/12/23 03:14:15;;;;;;;80.40;30.85;;;;;;;-3.36;100.00;99801.48;4507565;77;43312;-77
2021/12/23 03:20:16;;;;;;;75.62;29.10;;;;;;;-3.47;100.00;99797.09;4500369;77;44208;-78
2021/12/23 03:26:18;;;;;;;80.50;31.70;;;;;;;-3.50;100.00;99786.79;4550229;77;43020;-78
2021/12/23 03:32:20;;;;;;;80.40;31.57;;;;;;;-3.74;100.00;99777.75;4546288;77;43098;-76
2021/12/23 03:38:23;;;;;;;72.17;28.92;;;;;;;-3.62;100.00;99775.94;4539476;77;44139;-78
2021/12/23 03:44:24;;;;;;;70.25;29.25;;;;;;;-3.69;100.00;99775.59;4554042;78;44089;-77
2021/12/23 03:50:26;;;;;;;75.67;30.10;;;;;;;-3.59;100.00;99767.33;4554227;77;44061;-78
2021/12/23 03:56:28;;;;;;;70.17;28.92;;;;;;;-3.65;100.00;99760.77;4548623;77;44343;-76
2021/12/23 04:02:29;;;;;;;66.12;26.75;;;;;;;-3.62;100.00;99757.53;4573703;77;43745;-76
2021/12/23 04:08:30;;;;;;;64.32;25.37;;;;;;;-3.60;100.00;99745.10;4560939;77;43272;-76
2021/12/23 04:14:32;;;;;;;59.93;25.35;;;;;;;-3.72;100.00;99744.30;4552960;77;44089;-76
2021/12/23 04:20:46;;;;;;;64.40;25.35;;;;;;;-3.78;100.00;99724.10;4522335;78;43746;-76
2021/12/23 04:26:38;;;;;;;68.62;25.50;;;;;;;-3.79;100.00;99725.06;4448731;79;43576;-76
2021/12/23 04:32:40;;;;;;;58.25;24.95;;;;;;;-3.78;100.00;99721.48;4434040;79;44110;-76
2021/12/23 04:38:44;;;;;;;62.10;25.02;;;;;;;-3.89;100.00;99724.61;4444276;79;43547;-77
2021/12/23 04:44:45;;;;;;;60.25;24.15;;;;;;;-3.85;100.00;99712.89;4448726;79;44050;-78
2021/12/23 04:50:47;;;;;;;63.45;26.23;;;;;;;-3.85;100.00;99716.83;4451799;79;43373;-79
2021/12/23 04:56:50;;;;;;;64.17;25.37;;;;;;;-3.97;100.00;99713.37;4417039;79;43328;-76
2021/12/23 05:02:51;;;;;;;62.83;25.48;;;;;;;-4.02;100.00;99697.97;4329713;82;43757;-78
2021/12/23 05:08:53;;;;;;;75.52;31.37;;;;;;;-4.09;100.00;99685.80;4467049;78;44125;-76
2021/12/23 05:14:54;;;;;;;64.53;26.42;;;;;;;-3.93;100.00;99676.23;4447286;79;43820;-81
2021/12/23 05:20:56;;;;;;;63.75;26.52;;;;;;;-3.86;100.00;99667.87;4455618;78;43232;-76
2021/12/23 05:26:57;;;;;;;66.90;26.87;;;;;;;-4.01;100.00;99658.09;4448875;78;44111;-77
2021/12/23 05:32:58;;;;;;;68.55;28.45;;;;;;;-4.16;100.00;99654.89;4416242;78;44086;-77
2021/12/23 05:39:00;;;;;;;68.25;26.68;;;;;;;-4.16;100.00;99656.20;4441049;78;43961;-77
2021/12/23 05:45:01;;;;;;;66.92;27.13;;;;;;;-4.11;100.00;99657.51;4444955;78;44115;-79
2021/12/23 05:51:02;;;;;;;77.42;28.07;;;;;;;-4.08;100.00;99649.38;4443606;78;43623;-79
2021/12/23 05:57:04;;;;;;;77.03;27.87;;;;;;;-4.27;100.00;99642.59;4442968;78;43567;-78
2021/12/23 06:03:05;;;;;;;71.67;27.85;;;;;;;-4.39;100.00;99636.53;4443037;78;44111;-76
2021/12/23 06:09:06;;;;;;;73.55;27.50;;;;;;;-4.24;100.00;99627.92;4446154;78;44091;-76
2021/12/23 06:15:09;;;;;;;65.17;26.60;;;;;;;-4.25;100.00;99615.26;4447862;78;43282;-76
2021/12/23 06:21:10;;;;;;;72.30;27.87;;;;;;;-4.24;100.00;99613.48;4459354;78;44181;-77
2021/12/23 06:27:12;;;;;;;67.85;26.90;;;;;;;-4.22;100.00;99629.48;4490334;77;44085;-77
2021/12/23 06:33:15;;;;;;;77.65;30.68;;;;;;;-4.26;100.00;99618.84;4505128;79;43890;-78
2021/12/23 06:39:16;;;;;;;69.00;28.15;;;;;;;-4.30;100.00;99623.14;4504524;77;44097;-77
2021/12/23 06:45:18;;;;;;;82.90;31.30;;;;;;;-4.20;100.00;99612.27;4505656;79;43040;-83
2021/12/23 06:51:20;;;;;;;81.92;31.40;;;;;;;-4.31;100.00;99614.91;4505689;77;43068;-79
2021/12/23 06:57:22;;;;;;;78.80;30.32;;;;;;;-4.06;100.00;99600.67;4505749;77;43738;-82
2021/12/23 07:03:30;;;;;;;81.42;31.10;;;;;;;-3.96;100.00;99599.45;4532853;77;43052;-81
2021/12/23 07:09:26;;;;;;;77.70;31.07;;;;;;;-4.07;100.00;99591.95;4520250;77;43310;-84
2021/12/23 07:15:28;;;;;;;74.62;30.37;;;;;;;-3.71;100.00;99581.70;4491258;77;44117;-86
2021/12/23 07:21:29;;;;;;;74.75;30.88;;;;;;;-3.79;100.00;99580.53;4507458;78;44114;-84
2021/12/23 07:27:31;;;;;;;83.82;32.13;;;;;;;-3.64;100.00;99572.37;4508729;79;43134;-86
2021/12/23 07:33:32;;;;;;;72.10;30.15;;;;;;;-3.62;100.00;99568.28;4510209;77;44113;-87
2021/12/23 07:39:33;;;;;;;77.40;30.90;;;;;;;-3.24;100.00;99555.06;4501821;77;43602;-84
2021/12/23 07:45:36;;;;;;;83.55;30.15;;;;;;;-3.12;100.00;99561.09;4494692;77;43051;-85
2021/12/23 07:51:38;;;;;;;77.60;30.35;;;;;;;-2.96;100.00;99552.73;4505238;77;43703;-86
2021/12/23 07:57:41;;;;;;;75.35;30.90;;;;;;;-2.83;100.00;99544.13;4506020;77;44127;-83
2021/12/23 08:03:42;;;;;;;75.03;30.70;;;;;;;-2.60;100.00;99544.41;4507422;77;44173;-80
2021/12/23 08:09:43;;;;;;;81.87;30.17;;;;;;;-2.34;100.00;99545.27;4503391;79;42686;-86
2021/12/23 08:15:44;;;;;;;75.40;29.77;;;;;;;-2.21;100.00;99531.84;4506573;77;44116;-83
2021/12/23 08:21:46;;;;;;;76.55;32.08;;;;;;;-2.07;100.00;99534.08;4491070;79;43667;-78
2021/12/23 08:27:47;;;;;;;80.22;29.67;;;;;;;-1.83;100.00;99527.56;4429361;79;43811;-82
2021/12/23 08:33:49;;;;;;;68.83;28.80;;;;;;;-1.60;100.00;99512.80;4429806;80;44106;-83
2021/12/23 08:39:51;;;;;;;72.90;30.50;;;;;;;-1.32;100.00;99509.77;4413756;80;44098;-79
2021/12/23 08:45:53;;;;;;;75.47;30.52;;;;;;;-1.10;100.00;99498.52;4429938;80;44135;-87
2021/12/23 08:51:54;;;;;;;74.82;32.08;;;;;;;-0.94;100.00;99486.02;4423447;80;44073;-83
2021/12/23 08:57:56;;;;;;;78.45;31.57;;;;;;;-0.83;100.00;99485.50;4404570;80;42932;-84
2021/12/23 09:03:57;;;;;;;73.83;30.32;;;;;;;-0.64;100.00;99474.84;4409841;80;44148;-85
2021/12/23 09:09:59;;;;;;;75.35;31.55;;;;;;;-0.75;100.00;99475.85;4431197;80;44157;-86
2021/12/23 09:16:01;;;;;;;74.70;31.57;;;;;;;-0.48;100.00;99469.38;4423258;80;44094;-82
2021/12/23 09:22:03;;;;;;;89.37;35.33;;;;;;;-0.79;100.00;99465.73;4424609;79;44284;-82
2021/12/23 09:34:16;;;;;;;76.10;32.38;;;;;;;-0.57;100.00;99453.47;4393737;79;43251;-76
2021/12/23 09:40:20;;;;;;;67.47;28.80;;;;;;;-0.49;100.00;99433.38;4372707;81;44116;-83
2021/12/23 09:46:22;;;;;;;68.28;28.40;;;;;;;0.04;100.00;99411.89;4449627;80;44092;-82
2021/12/23 09:52:25;;;;;;;62.58;26.45;;;;;;;0.24;100.00;99398.48;4424092;79;43231;-80
2021/12/23 09:58:27;;;;;;;61.73;26.30;;;;;;;0.50;100.00;99382.61;4428474;80;42911;-81
2021/12/23 10:04:28;;;;;;;50.95;22.55;;;;;;;0.63;100.00;99380.02;4442663;80;43539;-79
2021/12/23 10:10:39;;;;;;;45.17;18.25;;;;;;;0.83;92.36;99370.00;4447061;80;43714;-84
2021/12/23 10:42:19;;;;;;;25.77;11.63;;;;;;;1.77;75.63;99277.58;4424358;80;28474;-86
2021/12/23 10:48:29;;;;;;;28.00;12.03;;;;;;;1.74;71.72;99271.30;4417492;80;43413;-87
2021/12/23 10:58:03;;;;;;;25.90;10.82;;;;;;;2.08;75.42;99251.17;4344741;82;42898;-85
2021/12/23 11:00:49;;;;;;;25.60;10.70;;;;;;;2.06;72.46;99235.09;4366084;80;43214;-85
2021/12/23 11:07:15;;;;;;;23.98;10.43;;;;;;;2.33;73.38;99205.96;4396582;80;43630;-84
2021/12/23 11:39:24;;;;;;;17.32;7.58;;;;;;;2.34;66.71;99128.01;4440032;79;43921;-89
2021/12/23 11:45:11;;;;;;;14.40;6.58;;;;;;;2.35;66.44;99122.22;4409774;80;43929;-89
2021/12/23 11:51:19;;;;;;;16.05;6.72;;;;;;;2.44;66.11;99097.25;4441569;80;43925;-88
2021/12/23 11:57:25;;;;;;;14.75;7.05;;;;;;;2.48;68.36;99086.63;4527943;77;43970;-77
2021/12/23 12:03:26;;;;;;;20.35;8.05;;;;;;;2.62;67.55;99069.59;4499195;78;43972;-80
2021/12/23 12:09:31;;;;;;;16.95;7.92;;;;;;;2.65;68.15;99061.26;4507421;78;43920;-83
2021/12/23 12:15:47;;;;;;;17.70;8.17;;;;;;;2.67;67.84;99051.80;4518521;77;28506;-77
2021/12/23 12:21:47;;;;;;;15.67;8.37;;;;;;;2.82;66.08;99037.23;4524813;77;28479;-81
2021/12/23 12:28:00;;;;;;;15.13;7.25;;;;;;;2.59;70.37;99041.56;4512939;77;43965;-75
2021/12/23 12:34:10;;;;;;;15.83;7.17;;;;;;;2.79;71.04;99022.47;4535824;77;43916;-74
2021/12/23 12:40:11;;;;;;;16.00;7.22;;;;;;;2.74;68.65;98995.13;4516056;77;44511;-76
2021/12/23 12:46:29;;;;;;;15.25;7.37;;;;;;;2.71;67.94;98973.43;4413078;79;28533;-77
2021/12/23 12:52:37;;;;;;;13.05;6.83;;;;;;;2.86;69.12;98964.15;4412763;79;43954;-74
2021/12/23 12:58:40;;;;;;;19.40;7.22;;;;;;;2.84;71.31;98955.55;4343005;80;43986;-79
2021/12/23 13:04:43;;;;;;;15.00;6.85;;;;;;;2.87;72.91;98944.06;4427784;79;43914;-78
2021/12/23 13:10:50;;;;;;;14.63;7.60;;;;;;;2.91;73.73;98941.86;4417578;79;28566;-77
2021/12/23 13:17:10;;;;;;;13.90;6.80;;;;;;;2.89;71.95;98927.95;4352922;80;28555;-77
2021/12/23 13:23:32;;;;;;;14.30;7.08;;;;;;;2.96;73.74;98907.59;4415268;79;28478;-82
2021/12/23 13:29:35;;;;;;;15.43;7.10;;;;;;;2.88;73.16;98905.06;4402693;79;28576;-81
2021/12/23 13:35:36;;;;;;;14.80;6.65;;;;;;;2.82;73.62;98900.48;4330500;80;43978;-81
2021/12/23 13:41:47;;;;;;;15.28;7.03;;;;;;;2.95;72.07;98908.61;4397444;80;28439;-81
2021/12/23 13:47:58;;;;;;;16.27;7.28;;;;;;;3.19;71.42;98897.38;4408544;80;43957;-82
2021/12/23 13:54:17;;;;;;;16.42;6.83;;;;;;;3.16;73.39;98871.99;4340272;81;43892;-83
2021/12/23 14:00:32;;;;;;;16.85;7.03;;;;;;;2.99;72.47;98860.77;4408203;80;28548;-82
2021/12/23 14:06:33;;;;;;;13.95;6.58;;;;;;;3.02;74.10;98833.83;4336121;80;43931;-83
2021/12/23 14:12:52;;;;;;;16.77;7.17;;;;;;;3.12;75.64;98813.59;4397097;79;43938;-80
2021/12/23 14:19:20;;;;;;;14.55;7.15;;;;;;;3.03;74.33;98804.11;4404488;79;43902;-81
2021/12/23 14:25:03;;;;;;;14.40;7.50;;;;;;;2.67;75.18;98803.09;4324382;80;28562;-80
2021/12/23 14:31:16;;;;;;;16.75;7.58;;;;;;;2.69;78.42;98799.73;4303882;81;43990;-81
2021/12/23 14:37:17;;;;;;;20.90;6.50;;;;;;;2.64;77.31;98792.82;4302803;81;28542;-80
2021/12/23 14:43:18;;;;;;;13.35;6.90;;;;;;;2.73;78.27;98769.67;4349053;80;43899;-84
2021/12/23 14:55:41;;;;;;;14.93;7.40;;;;;;;2.64;78.78;98745.88;4352077;81;43931;-84
2021/12/23 15:01:48;;;;;;;17.42;7.95;;;;;;;2.52;80.73;98736.76;4354390;80;28664;-85
2021/12/23 15:07:55;;;;;;;21.68;9.53;;;;;;;2.51;80.08;98733.79;4436504;79;28469;-84
2021/12/23 15:13:57;;;;;;;17.00;8.18;;;;;;;2.38;81.88;98745.05;4409988;79;43905;-81
2021/12/23 15:19:58;;;;;;;21.15;8.53;;;;;;;2.64;80.40;98729.11;4428093;79;43898;-80
2021/12/23 15:26:00;;;;;;;17.55;8.03;;;;;;;2.61;82.12;98728.17;4351283;80;28542;-83
2021/12/23 15:32:14;;;;;;;20.82;9.25;;;;;;;2.48;81.89;98716.89;4421993;79;43964;-84
2021/12/23 15:38:17;;;;;;;17.98;8.18;;;;;;;2.45;82.42;98712.80;4352630;81;43933;-80
2021/12/23 15:44:19;;;;;;;21.70;8.08;;;;;;;2.37;83.56;98689.02;4425154;80;43981;-83
2021/12/23 15:50:22;;;;;;;22.40;9.03;;;;;;;2.42;82.67;98677.33;4437684;79;43952;-81
2021/12/23 15:56:23;;;;;;;21.73;9.68;;;;;;;2.35;83.63;98665.84;4436983;80;43873;-82
2021/12/23 16:02:31;;;;;;;22.70;9.55;;;;;;;2.31;83.85;98645.48;4329674;80;43883;-82
2021/12/23 16:08:31;;;;;;;18.10;8.85;;;;;;;2.30;83.04;98639.03;4520751;77;43915;-82
2021/12/23 16:14:33;;;;;;;20.48;10.28;;;;;;;2.30;84.44;98613.83;4512571;77;44445;-82
2021/12/23 16:20:34;;;;;;;22.10;9.80;;;;;;;2.37;84.77;98601.46;4504226;78;43923;-81
2021/12/23 16:26:35;;;;;;;18.15;9.38;;;;;;;2.34;84.18;98588.55;4501121;77;43924;-80
2021/12/23 16:32:47;;;;;;;23.38;10.10;;;;;;;2.17;85.87;98580.02;4482274;77;28470;-82
2021/12/23 16:38:51;;;;;;;21.35;10.18;;;;;;;2.14;87.12;98569.79;4494991;77;44467;-84
2021/12/23 16:44:52;;;;;;;20.32;9.60;;;;;;;2.22;85.14;98555.89;4515793;77;43920;-83
2021/12/23 16:50:57;;;;;;;18.85;8.75;;;;;;;2.43;84.51;98550.80;4512715;77;43914;-80
2021/12/23 17:03:17;;;;;;;22.62;11.10;;;;;;;2.34;85.75;98552.24;4403591;79;44423;-80
2021/12/23 17:09:22;;;;;;;19.70;9.08;;;;;;;2.16;87.36;98534.61;4407434;79;43886;-81
2021/12/23 17:15:24;;;;;;;21.95;9.60;;;;;;;2.51;83.20;98526.27;4408471;79;43937;-80
2021/12/23 17:27:46;;;;;;;21.75;9.78;;;;;;;2.33;85.93;98492.23;4399386;79;43930;-81
2021/12/23 17:33:48;;;;;;;21.27;9.95;;;;;;;2.29;87.70;98490.16;4331658;80;44519;-79
2021/12/23 17:39:50;;;;;;;19.60;9.73;;;;;;;2.30;86.78;98490.47;4403499;79;43878;-84
2021/12/23 17:45:53;;;;;;;20.88;9.80;;;;;;;2.32;87.40;98464.07;4329711;80;43935;-84
2021/12/23 17:51:54;;;;;;;20.55;9.95;;;;;;;2.32;86.29;98440.20;4405034;79;44458;-80
2021/12/23 17:57:56;;;;;;;21.57;10.10;;;;;;;2.45;86.89;98414.77;4344330;80;44483;-79
2021/12/23 18:03:57;;;;;;;22.85;10.35;;;;;;;2.49;84.30;98413.35;4342067;81;43663;-82
2021/12/23 18:09:58;;;;;;;24.57;10.98;;;;;;;2.55;84.34;98407.78;4346339;81;42855;-82
2021/12/23 18:15:59;;;;;;;28.27;10.78;;;;;;;2.54;85.12;98371.14;4344110;82;43398;-82
2021/12/23 18:22:01;;;;;;;22.52;10.78;;;;;;;2.47;85.28;98345.06;4321159;82;44471;-82
2021/12/23 18:28:05;;;;;;;27.02;11.48;;;;;;;2.35;86.63;98330.22;4322225;81;43375;-82
2021/12/23 18:34:06;;;;;;;22.60;10.10;;;;;;;2.64;85.09;98329.64;4311633;82;43667;-81
2021/12/23 18:40:09;;;;;;;30.27;11.08;;;;;;;2.49;85.84;98353.16;4461411;78;43371;-82
2021/12/23 18:46:10;;;;;;;22.35;11.30;;;;;;;2.54;83.58;98374.30;4452663;78;43739;-82
2021/12/23 18:52:12;;;;;;;26.27;11.40;;;;;;;2.41;83.21;98365.77;4459984;78;43037;-77
2021/12/23 18:58:13;;;;;;;29.12;11.88;;;;;;;2.77;82.99;98384.14;4445321;77;43466;-77
2021/12/23 19:04:45;;;;;;;29.98;11.73;;;;;;;2.71;83.92;98402.66;4427764;78;43468;-79
2021/12/23 19:10:27;;;;;;;27.27;12.00;;;;;;;2.82;84.07;98390.19;4446386;78;43330;-77
2021/12/23 19:16:30;;;;;;;24.10;10.65;;;;;;;2.42;89.07;98380.67;4460508;78;43671;-78
2021/12/23 19:22:31;;;;;;;22.35;11.03;;;;;;;2.74;90.08;98357.16;4455397;78;44442;-78
2021/12/23 19:28:33;;;;;;;25.02;11.38;;;;;;;2.75;91.54;98366.23;4486533;77;43663;-85
2021/12/23 19:34:35;;;;;;;27.93;12.05;;;;;;;2.72;87.75;98365.31;4521894;78;43469;-84
2021/12/23 19:40:39;;;;;;;25.52;11.93;;;;;;;2.41;92.16;98352.50;4503616;77;28482;-83
2021/12/23 19:46:40;;;;;;;32.13;12.50;;;;;;;2.68;88.26;98338.86;4508515;77;43442;-82
2021/12/23 19:52:42;;;;;;;24.80;11.80;;;;;;;2.73;94.51;98318.36;4509023;77;43596;-77
2021/12/23 20:04:56;;;;;;;25.05;11.53;;;;;;;2.73;97.13;98320.49;4607647;75;86638;-90
2021/12/23 20:10:58;;;;;;;24.75;10.48;;;;;;;2.62;96.25;98317.08;4514579;77;43590;-81
2021/12/23 20:17:00;;;;;;;22.27;10.78;;;;;;;2.64;99.96;98309.23;4501498;77;44461;-87
2021/12/23 20:23:02;;;;;;;23.83;10.23;;;;;;;2.61;100.00;98291.55;4501141;77;44481;-78
2021/12/23 20:29:05;;;;;;;22.22;10.85;;;;;;;2.64;100.00;98276.55;4508473;77;44422;-76
2021/12/23 20:35:08;;;;;;;23.42;11.10;;;;;;;2.47;100.00;98252.20;4514294;77;28502;-76
2021/12/23 20:41:09;;;;;;;24.43;11.95;;;;;;;2.36;100.00;98235.83;4525650;77;28537;-83
2021/12/23 20:47:11;;;;;;;26.45;11.50;;;;;;;2.55;100.00;98228.64;4534383;77;43511;-90
2021/12/23 20:53:24;;;;;;;25.95;12.30;;;;;;;2.59;100.00;98221.94;4509506;77;28528;-82
2021/12/23 20:59:20;;;;;;;27.48;12.50;;;;;;;2.54;99.70;98199.14;4508336;77;28525;-87
2021/12/23 21:05:22;;;;;;;26.75;12.30;;;;;;;2.63;99.51;98196.63;4520401;77;43207;-80
2021/12/23 21:11:24;;;;;;;29.60;12.43;;;;;;;2.57;100.00;98184.17;4518486;77;43424;-78
2021/12/23 21:17:25;;;;;;;28.52;12.28;;;;;;;2.47;99.13;98181.39;4520297;77;43436;-76
2021/12/23 21:23:27;;;;;;;31.82;12.95;;;;;;;2.47;96.50;98157.50;4516833;77;43791;-77
2021/12/23 21:29:29;;;;;;;27.98;12.30;;;;;;;2.76;92.01;98142.26;4509621;77;43393;-76
2021/12/23 21:35:30;;;;;;;24.72;11.25;;;;;;;2.72;91.73;98129.06;4516390;77;43688;-75
2021/12/23 21:41:33;;;;;;;29.27;12.10;;;;;;;2.87;92.07;98118.25;4516312;77;43377;-77
2021/12/23 21:47:35;;;;;;;26.45;11.60;;;;;;;2.96;90.44;98108.23;4507384;77;43089;-77
2021/12/23 21:53:39;;;;;;;25.17;11.57;;;;;;;2.86;91.58;98098.03;4517240;77;28513;-79
2021/12/23 21:59:40;;;;;;;23.60;11.95;;;;;;;2.89;91.26;98079.56;4516782;77;43645;-76
2021/12/23 22:05:44;;;;;;;26.15;11.75;;;;;;;2.88;93.86;98070.77;4501008;77;42861;-77
2021/12/23 22:11:48;;;;;;;26.15;11.60;;;;;;;2.88;94.66;98046.88;4503269;77;28687;-77
2021/12/23 22:17:51;;;;;;;24.95;11.90;;;;;;;3.10;94.94;98039.20;4495321;77;28554;-78
2021/12/23 22:23:53;;;;;;;25.10;11.35;;;;;;;3.05;97.19;98014.59;4508849;77;28570;-78
2021/12/23 22:29:54;;;;;;;22.80;10.58;;;;;;;3.03;99.58;97997.52;4495649;77;28583;-79
2021/12/23 22:35:56;;;;;;;20.37;9.38;;;;;;;3.12;92.54;97985.35;4507901;77;43943;-78
2021/12/23 22:41:57;;;;;;;17.32;8.20;;;;;;;3.20;90.61;97970.52;4496423;77;43951;-77
2021/12/23 22:47:59;;;;;;;16.52;7.17;;;;;;;3.45;84.98;97950.70;4500140;77;43921;-77
2021/12/23 22:54:01;;;;;;;14.63;6.42;;;;;;;3.49;87.01;97942.59;4496506;77;44021;-77
2021/12/23 23:00:08;;;;;;;15.25;7.28;;;;;;;3.55;86.11;97918.87;4500880;77;29060;-77
2021/12/23 23:06:09;;;;;;;12.98;6.50;;;;;;;3.53;87.83;97905.78;4509538;77;43980;-77
2021/12/23 23:12:16;;;;;;;11.53;6.15;;;;;;;3.67;87.56;97898.55;4523117;77;43255;-78
2021/12/23 23:18:17;;;;;;;10.48;6.28;;;;;;;3.66;95.03;97890.77;4509738;77;43221;-77
2021/12/23 23:24:26;;;;;;;12.68;6.70;;;;;;;3.58;100.00;97877.23;4523965;77;28550;-77
2021/12/23 23:37:37;;;;;;;13.83;6.33;;;;;;;3.66;100.00;97850.41;4512564;77;28510;-77
2021/12/23 23:42:58;;;;;;;11.90;6.33;;;;;;;3.64;100.00;97843.13;4500706;77;28573;-77
2021/12/23 23:48:58;;;;;;;12.28;6.17;;;;;;;3.54;100.00;97842.30;4524028;77;28505;-78
2021/12/23 23:55:07;;;;;;;14.23;7.22;;;;;;;3.44;100.00;97839.30;4500185;77;28513;-79
